createdAt,value
2019-01-27T00:07:08.591Z,-17.74
2019-01-27T00:10:17.831Z,-17.75
2019-01-27T00:15:44.703Z,-17.60
2019-01-27T00:18:53.586Z,-17.50
2019-01-27T00:22:02.933Z,-17.45
2019-01-27T00:34:38.136Z,-17.24
2019-01-27T00:40:27.840Z,-17.24
2019-01-27T00:45:59.742Z,-17.20
2019-01-27T00:49:09.208Z,-17.20
2019-01-27T00:52:18.610Z,-17.19
2019-01-27T00:58:03.936Z,-16.99
2019-01-27T01:04:00.750Z,-16.96
2019-01-27T01:09:34.024Z,-16.87
2019-01-27T01:12:03.465Z,-16.81
2019-01-27T01:15:12.614Z,-16.81
2019-01-27T01:29:55.362Z,-16.82
2019-01-27T01:32:25.075Z,-16.82
2019-01-27T01:34:54.962Z,-16.79
2019-01-27T01:38:03.970Z,-16.82
2019-01-27T01:49:51.571Z,-16.80
2019-01-27T01:52:21.102Z,-16.80
2019-01-27T01:54:50.797Z,-16.73
2019-01-27T01:57:21.535Z,-16.69
2019-01-27T02:03:00.698Z,-16.68
2019-01-27T02:08:39.785Z,-16.68
2019-01-27T02:17:27.260Z,-16.57
2019-01-27T02:20:36.026Z,-16.58
2019-01-27T02:23:45.769Z,-16.54
2019-01-27T02:26:17.649Z,-16.49
2019-01-27T02:29:27.515Z,-16.45
2019-01-27T02:35:00.509Z,-16.47
2019-01-27T02:38:10.067Z,-16.53
2019-01-27T02:40:58.471Z,-16.49
2019-01-27T02:50:17.486Z,-16.36
2019-01-27T02:52:46.927Z,-16.35
2019-01-27T02:55:55.809Z,-16.31
2019-01-27T02:58:25.825Z,-16.29
2019-01-27T03:00:55.633Z,-16.34
2019-01-27T03:04:05.318Z,-16.34
2019-01-27T03:09:49.452Z,-16.34
2019-01-27T03:18:42.092Z,-16.23
2019-01-27T03:24:13.727Z,-16.31
2019-01-27T03:26:43.167Z,-16.35
2019-01-27T03:32:28.107Z,-16.41
2019-01-27T03:38:23.074Z,-16.53
2019-01-27T03:47:10.105Z,-16.77
2019-01-27T03:50:19.282Z,-16.74
2019-01-27T03:53:28.217Z,-16.76
2019-01-27T03:59:24.482Z,-16.83
2019-01-27T04:05:08.426Z,-17.01
2019-01-27T04:07:38.085Z,-17.06
2019-01-27T04:10:48.886Z,-17.04
2019-01-27T04:19:26.105Z,-16.86
2019-01-27T04:22:14.951Z,-16.85
2019-01-27T04:24:44.525Z,-16.86
2019-01-27T04:27:54.305Z,-16.86
2019-01-27T04:33:20.878Z,-16.81
2019-01-27T04:36:29.793Z,-16.87
2019-01-27T04:39:20.796Z,-16.83
2019-01-27T04:59:58.812Z,-16.74
2019-01-27T05:03:07.661Z,-16.70
2019-01-27T05:08:33.732Z,-16.69
2019-01-27T05:11:42.626Z,-16.64
2019-01-27T05:17:40.245Z,-16.54
2019-01-27T05:20:49.275Z,-16.49
2019-01-27T05:26:20.745Z,-16.51
2019-01-27T05:28:50.124Z,-16.50
2019-01-27T05:31:59.045Z,-17.29
2019-01-27T05:37:51.984Z,-16.36
2019-01-27T05:43:23.350Z,-16.43
2019-01-27T05:46:32.131Z,-16.39
2019-01-27T05:49:41.547Z,-16.34
2019-01-27T05:58:20.232Z,-16.38
2019-01-27T06:04:04.272Z,-16.43
2019-01-27T06:09:49.269Z,-16.50
2019-01-27T06:12:21.648Z,-16.52
2019-01-27T06:15:31.838Z,-16.57
2019-01-27T06:18:03.775Z,-16.66
2019-01-27T06:20:35.314Z,-16.79
2019-01-27T06:23:05.544Z,-16.78
2019-01-27T06:25:37.790Z,-16.83
2019-01-27T06:28:09.041Z,-16.85
2019-01-27T06:30:39.558Z,-16.87
2019-01-27T06:33:25.971Z,-16.90
2019-01-27T06:35:56.351Z,-16.88
2019-01-27T06:38:26.077Z,-16.91
2019-01-27T06:40:55.704Z,-16.90
2019-01-27T06:43:25.885Z,-16.93
2019-01-27T06:45:57.420Z,-16.94
2019-01-27T06:48:28.093Z,-17.02
2019-01-27T06:50:58.430Z,-17.02
2019-01-27T06:53:28.426Z,-17.04
2019-01-27T06:55:58.457Z,-17.06
2019-01-27T06:58:46.912Z,-17.02
2019-01-27T07:01:44.375Z,-17.04
2019-01-27T07:04:35.948Z,-17.00
2019-01-27T07:07:33.052Z,-16.95
2019-01-27T07:10:33.480Z,-16.93
2019-01-27T07:13:43.653Z,-16.93
2019-01-27T07:19:47.558Z,-16.86
2019-01-27T07:25:31.016Z,-16.72
2019-01-27T07:35:10.919Z,-16.81
2019-01-27T07:37:45.288Z,-16.80
2019-01-27T07:40:35.128Z,-16.82
2019-01-27T07:43:33.459Z,-16.82
2019-01-27T07:46:22.660Z,-16.75
2019-01-27T07:49:09.313Z,-16.79
2019-01-27T07:51:51.517Z,-17.66
2019-01-27T07:54:52.125Z,-16.73
2019-01-27T07:57:34.273Z,-16.66
2019-01-27T08:00:09.965Z,-16.63
2019-01-27T08:02:57.430Z,-16.61
2019-01-27T08:05:44.607Z,-16.67
2019-01-27T08:08:51.748Z,-16.65
2019-01-27T08:11:38.290Z,-16.64
2019-01-27T08:14:47.389Z,-16.66
2019-01-27T08:17:36.610Z,-16.71
2019-01-27T08:20:46.856Z,-16.73
2019-01-27T08:23:26.192Z,-17.29
2019-01-27T08:26:14.739Z,-16.70
2019-01-27T08:32:00.309Z,-16.80
2019-01-27T08:34:47.737Z,-16.74
2019-01-27T08:37:36.225Z,-16.68
2019-01-27T08:40:21.016Z,-16.57
2019-01-27T08:43:09.358Z,-16.64
2019-01-27T08:45:47.415Z,-16.63
2019-01-27T08:48:17.437Z,-16.66
2019-01-27T08:54:01.857Z,-16.58
2019-01-27T08:57:10.575Z,-16.53
2019-01-27T09:02:55.585Z,-16.60
2019-01-27T09:12:00.210Z,-16.39
2019-01-27T09:14:41.786Z,-16.32
2019-01-27T09:17:36.265Z,-16.24
2019-01-27T09:20:44.353Z,-16.23
2019-01-27T09:23:24.928Z,-16.17
2019-01-27T09:26:13.831Z,-16.09
2019-01-27T09:29:23.617Z,-16.07
2019-01-27T09:32:21.090Z,-16.06
2019-01-27T09:35:18.404Z,-15.94
2019-01-27T09:38:10.313Z,-15.89
2019-01-27T09:40:59.180Z,-15.98
2019-01-27T09:43:56.657Z,-16.02
2019-01-27T09:46:50.028Z,-16.09
2019-01-27T09:49:45.132Z,-16.16
2019-01-27T09:52:24.492Z,-16.15
2019-01-27T09:55:11.823Z,-16.94
2019-01-27T09:57:59.857Z,-16.14
2019-01-27T10:00:48.458Z,-16.16
2019-01-27T10:03:31.332Z,-16.21
2019-01-27T10:06:22.650Z,-16.08
2019-01-27T10:09:17.264Z,-16.10
2019-01-27T10:12:08.693Z,-16.32
2019-01-27T10:14:56.026Z,-16.29
2019-01-27T10:20:40.504Z,-16.22
2019-01-27T10:23:49.683Z,-16.26
2019-01-27T10:26:27.728Z,-16.34
2019-01-27T10:29:14.763Z,-16.36
2019-01-27T10:32:05.948Z,-16.49
2019-01-27T10:34:54.289Z,-17.27
2019-01-27T10:38:00.722Z,-16.51
2019-01-27T10:40:41.414Z,-16.57
2019-01-27T10:43:21.879Z,-17.46
2019-01-27T10:46:19.698Z,-16.69
2019-01-27T10:49:11.541Z,-16.68
2019-01-27T10:52:09.270Z,-16.57
2019-01-27T10:55:06.983Z,-16.43
2019-01-27T10:57:48.310Z,-16.21
2019-01-27T11:00:36.681Z,-16.00
2019-01-27T11:03:34.312Z,-16.02
2019-01-27T11:06:43.697Z,-16.10
2019-01-27T11:12:52.028Z,-16.11
2019-01-27T11:15:40.428Z,-15.96
2019-01-27T11:21:25.291Z,-15.80
2019-01-27T11:24:26.848Z,-15.75
2019-01-27T11:27:08.105Z,-15.73
2019-01-27T11:30:03.317Z,-15.54
2019-01-27T11:32:50.587Z,-15.28
2019-01-27T11:35:44.798Z,-15.18
2019-01-27T11:38:45.411Z,-15.23
2019-01-27T11:41:32.833Z,-15.24
2019-01-27T11:44:19.464Z,-15.21
2019-01-27T11:47:06.338Z,-15.14
2019-01-27T11:50:07.262Z,-15.18
2019-01-27T11:52:43.686Z,-15.01
2019-01-27T11:55:15.392Z,-14.92
2019-01-27T11:57:44.837Z,-14.73
2019-01-27T12:00:17.967Z,-14.52
2019-01-27T12:02:49.940Z,-14.38
2019-01-27T12:05:21.393Z,-14.28
2019-01-27T12:20:44.960Z,-14.14
2019-01-27T12:26:24.259Z,-14.05
2019-01-27T12:28:54.147Z,-14.15
2019-01-27T12:31:23.761Z,-15.11
2019-01-27T12:33:53.839Z,-14.49
2019-01-27T12:36:23.887Z,-14.40
2019-01-27T12:38:53.744Z,-14.36
2019-01-27T12:41:24.469Z,-14.39
2019-01-27T12:43:54.633Z,-14.49
2019-01-27T12:46:24.214Z,-14.51
2019-01-27T12:48:57.558Z,-14.53
2019-01-27T12:51:28.071Z,-14.50
2019-01-27T12:53:58.244Z,-14.43
2019-01-27T12:56:27.990Z,-14.46
2019-01-27T12:58:58.910Z,-14.66
2019-01-27T13:01:33.283Z,-14.63
2019-01-27T13:04:03.574Z,-14.56
2019-01-27T13:06:32.964Z,-14.63
2019-01-27T13:09:02.933Z,-14.60
2019-01-27T13:11:33.919Z,-14.56
2019-01-27T13:14:05.641Z,-14.55
2019-01-27T13:16:43.354Z,-14.53
2019-01-27T13:19:13.525Z,-14.57
2019-01-27T13:21:44.288Z,-14.59
2019-01-27T13:24:19.569Z,-14.66
2019-01-27T13:26:49.373Z,-14.72
2019-01-27T13:29:20.907Z,-14.79
2019-01-27T13:31:51.495Z,-14.89
2019-01-27T13:34:22.028Z,-14.94
2019-01-27T13:37:30.764Z,-15.04
2019-01-27T13:43:31.310Z,-16.15
2019-01-27T13:46:01.704Z,-15.47
2019-01-27T13:49:10.958Z,-15.57
2019-01-27T13:55:13.162Z,-15.81
2019-01-27T13:57:44.521Z,-15.96
2019-01-27T14:00:19.367Z,-16.08
2019-01-27T14:02:49.314Z,-16.20
2019-01-27T14:05:18.924Z,-16.34
2019-01-27T14:07:50.596Z,-16.42
2019-01-27T14:16:20.337Z,-16.80
2019-01-27T14:19:29.897Z,-16.91
2019-01-27T14:25:14.192Z,-17.11
2019-01-27T14:27:44.700Z,-17.24
2019-01-27T14:30:18.234Z,-17.30
2019-01-27T14:32:47.787Z,-17.38
2019-01-27T14:35:18.417Z,-17.46
2019-01-27T14:38:27.385Z,-17.53
2019-01-27T14:44:31.480Z,-17.69
2019-01-27T14:47:01.684Z,-17.74
2019-01-27T14:49:31.829Z,-17.80
2019-01-27T14:52:01.766Z,-17.88
2019-01-27T14:54:31.700Z,-17.99
2019-01-27T14:57:01.596Z,-18.07
2019-01-27T14:59:37.556Z,-18.12
2019-01-27T15:05:32.020Z,-18.34
2019-01-27T15:08:02.343Z,-18.43
2019-01-27T15:10:36.649Z,-18.48
2019-01-27T15:13:09.627Z,-18.55
2019-01-27T15:15:39.723Z,-18.60
2019-01-27T15:18:48.983Z,-18.66
2019-01-27T15:21:29.992Z,-18.73
2019-01-27T15:24:00.437Z,-18.81
2019-01-27T15:26:30.532Z,-18.87
2019-01-27T15:29:01.618Z,-18.92
2019-01-27T15:31:31.657Z,-19.00
2019-01-27T15:34:03.502Z,-19.05
2019-01-27T15:36:35.342Z,-19.08
2019-01-27T15:39:08.623Z,-19.17
2019-01-27T15:41:42.586Z,-19.22
2019-01-27T15:44:16.127Z,-19.28
2019-01-27T15:46:48.504Z,-19.32
2019-01-27T15:49:39.396Z,-19.39
2019-01-27T15:55:06.728Z,-19.54
2019-01-27T15:57:36.185Z,-19.58
2019-01-27T16:00:08.285Z,-19.66
2019-01-27T16:02:40.384Z,-19.72
2019-01-27T16:05:13.357Z,-19.78
2019-01-27T16:07:43.757Z,-19.86
2019-01-27T16:10:14.722Z,-19.93
2019-01-27T16:12:45.809Z,-19.98
2019-01-27T16:15:22.424Z,-20.04
2019-01-27T16:17:54.767Z,-20.21
2019-01-27T16:21:05.611Z,-20.30
2019-01-27T16:23:53.147Z,-20.35
2019-01-27T16:26:22.708Z,-20.48
2019-01-27T16:28:52.176Z,-20.49
2019-01-27T16:32:01.176Z,-20.48
2019-01-27T16:34:56.922Z,-20.53
2019-01-27T16:37:26.822Z,-20.58
2019-01-27T16:39:56.632Z,-20.60
2019-01-27T16:42:27.662Z,-20.65
2019-01-27T16:44:57.516Z,-20.67
2019-01-27T16:47:27.431Z,-20.73
2019-01-27T16:49:57.012Z,-20.73
2019-01-27T16:52:30.026Z,-20.73
2019-01-27T16:54:59.562Z,-20.79
2019-01-27T16:57:30.329Z,-20.84
2019-01-27T17:00:00.011Z,-20.87
2019-01-27T17:02:31.420Z,-20.90
2019-01-27T17:05:01.797Z,-20.90
2019-01-27T17:07:34.756Z,-20.92
2019-01-27T17:10:09.149Z,-21.04
2019-01-27T17:12:39.494Z,-21.33
2019-01-27T17:15:13.886Z,-21.30
2019-01-27T17:17:44.660Z,-21.26
2019-01-27T17:20:17.227Z,-21.24
2019-01-27T17:22:46.876Z,-21.23
2019-01-27T17:25:18.117Z,-21.27
2019-01-27T17:27:48.406Z,-21.30
2019-01-27T17:30:23.076Z,-21.30
2019-01-27T17:32:53.041Z,-21.35
2019-01-27T17:35:23.540Z,-21.39
2019-01-27T17:37:53.628Z,-21.42
2019-01-27T17:40:24.649Z,-21.44
2019-01-27T17:42:54.613Z,-21.59
2019-01-27T17:45:25.556Z,-21.89
2019-01-27T17:47:55.096Z,-22.04
2019-01-27T17:50:25.694Z,-22.02
2019-01-27T17:52:55.119Z,-21.96
2019-01-27T17:55:47.455Z,-21.93
2019-01-27T17:58:31.175Z,-21.89
2019-01-27T18:01:31.634Z,-21.89
2019-01-27T18:07:34.370Z,-21.94
2019-01-27T18:16:11.123Z,-22.04
2019-01-27T18:18:41.083Z,-22.10
2019-01-27T18:21:30.365Z,-22.21
2019-01-27T18:24:00.226Z,-22.27
2019-01-27T18:26:30.668Z,-22.28
2019-01-27T18:29:40.880Z,-22.31
2019-01-27T18:38:09.158Z,-22.40
2019-01-27T18:43:48.716Z,-22.47
2019-01-27T18:46:19.141Z,-22.48
2019-01-27T18:48:49.368Z,-22.51
2019-01-27T18:51:19.786Z,-22.57
2019-01-27T18:54:11.158Z,-22.61
2019-01-27T18:56:55.463Z,-22.62
2019-01-27T18:59:35.334Z,-22.65
2019-01-27T19:02:31.075Z,-22.76
2019-01-27T19:05:07.165Z,-22.85
2019-01-27T19:07:55.123Z,-22.90
2019-01-27T19:10:34.254Z,-23.09
2019-01-27T19:13:12.361Z,-23.16
2019-01-27T19:16:06.708Z,-23.12
2019-01-27T19:18:55.370Z,-23.14
2019-01-27T19:21:42.409Z,-23.28
2019-01-27T19:24:26.000Z,-23.33
2019-01-27T19:27:13.607Z,-23.35
2019-01-27T19:30:02.619Z,-23.30
2019-01-27T19:33:03.704Z,-23.25
2019-01-27T19:36:12.564Z,-23.18
2019-01-27T19:39:10.663Z,-23.14
2019-01-27T19:42:11.193Z,-23.20
2019-01-27T19:44:59.168Z,-23.22
2019-01-27T19:47:51.663Z,-23.23
2019-01-27T19:50:55.807Z,-23.21
2019-01-27T19:54:02.442Z,-23.22
2019-01-27T19:56:53.031Z,-23.24
2019-01-27T19:59:59.908Z,-23.26
2019-01-27T20:02:54.827Z,-23.39
2019-01-27T20:05:44.248Z,-23.49
2019-01-27T20:08:39.498Z,-23.54
2019-01-27T20:11:32.296Z,-23.64
2019-01-27T20:14:21.074Z,-23.73
2019-01-27T20:17:16.438Z,-23.81
2019-01-27T20:20:05.597Z,-23.87
2019-01-27T20:23:00.884Z,-23.95
2019-01-27T20:25:49.534Z,-23.89
2019-01-27T20:28:37.574Z,-23.83
2019-01-27T20:31:25.195Z,-23.99
2019-01-27T20:34:15.914Z,-24.01
2019-01-27T20:36:54.187Z,-23.99
2019-01-27T20:39:41.023Z,-23.94
2019-01-27T20:42:29.346Z,-23.91
2019-01-27T20:45:30.838Z,-23.90
2019-01-27T20:48:29.180Z,-23.86
2019-01-27T20:51:23.548Z,-23.85
2019-01-27T20:54:20.063Z,-23.88
2019-01-27T20:56:59.135Z,-23.91
2019-01-27T20:59:53.613Z,-23.92
2019-01-27T21:02:55.203Z,-23.94
2019-01-27T21:05:45.183Z,-23.95
2019-01-27T21:08:24.302Z,-23.94
2019-01-27T21:11:25.486Z,-24.00
2019-01-27T21:14:14.117Z,-23.97
2019-01-27T21:17:07.915Z,-23.99
2019-01-27T21:19:43.803Z,-24.07
2019-01-27T21:22:14.381Z,-24.14
2019-01-27T21:24:43.847Z,-24.22
2019-01-27T21:27:13.991Z,-24.34
2019-01-27T21:30:04.337Z,-24.36
2019-01-27T21:33:13.259Z,-24.38
2019-01-27T21:39:28.185Z,-24.37
2019-01-27T21:48:31.001Z,-24.33
2019-01-27T21:51:01.451Z,-24.37
2019-01-27T21:53:31.379Z,-24.35
2019-01-27T21:56:03.613Z,-24.34
2019-01-27T21:58:34.129Z,-24.37
2019-01-27T22:01:04.921Z,-24.35
2019-01-27T22:03:36.798Z,-24.40
2019-01-27T22:11:34.626Z,-24.50
2019-01-27T22:14:06.641Z,-24.55
2019-01-27T22:16:36.039Z,-24.66
2019-01-27T22:19:06.200Z,-24.70
2019-01-27T22:21:37.408Z,-24.72
2019-01-27T22:24:07.089Z,-24.86
2019-01-27T22:26:36.481Z,-25.03
2019-01-27T22:29:06.539Z,-24.97
2019-01-27T22:31:36.934Z,-25.10
2019-01-27T22:34:06.500Z,-25.08
2019-01-27T22:36:35.900Z,-25.03
2019-01-27T22:39:08.299Z,-25.01
2019-01-27T22:41:39.201Z,-24.98
2019-01-27T22:44:08.965Z,-25.00
2019-01-27T22:46:38.508Z,-25.05
2019-01-27T22:49:08.378Z,-25.01
2019-01-27T22:51:38.486Z,-25.02
2019-01-27T22:54:09.949Z,-24.99
2019-01-27T22:56:39.797Z,-26.08
2019-01-27T22:59:09.249Z,-25.01
2019-01-27T23:01:39.680Z,-25.10
2019-01-27T23:04:09.979Z,-25.15
2019-01-27T23:06:39.962Z,-25.19
2019-01-27T23:09:18.521Z,-25.21
2019-01-27T23:11:49.201Z,-25.30
2019-01-27T23:17:13.621Z,-25.27
2019-01-27T23:20:22.747Z,-25.27
2019-01-27T23:22:53.377Z,-25.26
2019-01-27T23:31:45.407Z,-25.22
2019-01-27T23:37:24.745Z,-25.19
2019-01-27T23:39:54.144Z,-25.16
2019-01-27T23:43:02.980Z,-25.15
2019-01-27T23:48:55.979Z,-25.20
2019-01-27T23:51:26.104Z,-25.21
